Belgium, Wisconsin
Current Conditions -  °F | °C
As of 5:30 PM on Saturday 20 Dec 2014 (Local Time) from KETB Reporting Station
Overcast Overcast  
Wind Chill: 30°   Ceiling: 2300
Heat Index: 30°   Visibility: 10mi
Dew Point: 25°   Wind: 0mph
Humidity: 80%   Direction: NA
Pressure: 30.22"   Gusts: NA
Location:  43.5°N, 87.85°W
Report Text: KETB 202330Z AUTO 00000KT 10SM OVC023 M01/M04 A3022 RMK AO2
Loading
Personal Weather Stations






























Interactive Weather Map New forecast layout! Learn more

10-Day Weather Forecast

Advertisements
Track Severe Weather on mobile